createdAt,value
2023-01-21T00:00:03.653Z,62.50
2023-01-21T00:02:34.154Z,62.40
2023-01-21T00:05:04.796Z,62.40
2023-01-21T00:07:35.022Z,62.40
2023-01-21T00:10:05.623Z,62.20
2023-01-21T00:12:35.892Z,62.10
2023-01-21T00:15:06.442Z,62.10
2023-01-21T00:17:37.828Z,62.10
2023-01-21T00:20:09.448Z,61.10
2023-01-21T00:22:39.871Z,60.30
2023-01-21T00:25:10.796Z,60.10
2023-01-21T00:27:41.220Z,60.30
2023-01-21T00:30:12.656Z,59.70
2023-01-21T00:32:43.000Z,59.10
2023-01-21T00:35:13.320Z,59.20
2023-01-21T00:37:43.514Z,59.00
2023-01-21T00:40:14.922Z,59.00
2023-01-21T00:42:45.348Z,57.80
2023-01-21T00:45:15.732Z,57.90
2023-01-21T00:47:46.113Z,57.70
2023-01-21T00:50:16.762Z,58.10
2023-01-21T00:52:47.156Z,58.40
2023-01-21T00:55:17.610Z,57.80
2023-01-21T00:57:47.852Z,57.30
2023-01-21T01:00:18.992Z,56.80
2023-01-21T01:02:49.275Z,56.80
2023-01-21T01:05:21.188Z,55.90
2023-01-21T01:07:52.227Z,55.50
2023-01-21T01:10:22.721Z,55.30
2023-01-21T01:12:52.966Z,55.90
2023-01-21T01:15:23.194Z,56.20
2023-01-21T01:17:53.437Z,57.00
2023-01-21T01:20:23.714Z,57.50
2023-01-21T01:22:53.949Z,57.80
2023-01-21T01:25:24.167Z,58.00
2023-01-21T01:27:54.404Z,58.30
2023-01-21T01:30:24.664Z,58.30
2023-01-21T01:32:54.958Z,58.50
2023-01-21T01:35:25.902Z,58.70
2023-01-21T01:37:56.619Z,58.60
2023-01-21T01:40:26.876Z,58.70
2023-01-21T01:42:57.056Z,58.80
2023-01-21T01:45:27.338Z,58.90
2023-01-21T01:48:07.863Z,58.90
2023-01-21T01:50:43.453Z,58.90
2023-01-21T01:53:16.109Z,59.00
2023-01-21T01:55:47.834Z,59.10
2023-01-21T01:58:19.601Z,59.10
2023-01-21T02:00:50.127Z,59.20
2023-01-21T02:03:39.105Z,59.20
2023-01-21T02:06:09.813Z,59.20
2023-01-21T02:08:40.495Z,59.20
2023-01-21T02:11:18.513Z,59.20
2023-01-21T02:13:56.231Z,59.10
2023-01-21T02:16:47.896Z,59.70
2023-01-21T02:19:40.569Z,59.00
2023-01-21T02:22:32.752Z,59.00
2023-01-21T02:25:29.100Z,58.90
2023-01-21T02:28:19.941Z,58.90
2023-01-21T02:31:26.658Z,58.90
2023-01-21T02:34:15.085Z,58.70
2023-01-21T02:36:50.905Z,58.80
2023-01-21T02:39:48.016Z,58.70
2023-01-21T02:42:29.963Z,58.60
2023-01-21T02:45:18.691Z,58.70
2023-01-21T02:48:08.997Z,58.70
2023-01-21T02:50:51.285Z,58.70
2023-01-21T02:53:27.382Z,58.60
2023-01-21T02:56:01.133Z,58.60
2023-01-21T02:58:36.312Z,58.60
2023-01-21T03:01:24.869Z,58.60
2023-01-21T03:04:21.306Z,58.70
2023-01-21T03:07:19.403Z,58.60
2023-01-21T03:09:50.300Z,58.70
2023-01-21T03:13:01.711Z,58.70
2023-01-21T03:16:13.047Z,58.60
2023-01-21T03:18:48.133Z,58.70
2023-01-21T03:21:23.598Z,58.80
2023-01-21T03:23:55.711Z,58.70
2023-01-21T03:26:38.911Z,58.70
2023-01-21T03:29:19.773Z,58.70
2023-01-21T03:31:56.027Z,58.70
2023-01-21T03:34:29.539Z,58.80
2023-01-21T03:37:31.066Z,58.70
2023-01-21T03:40:42.526Z,58.70
2023-01-21T03:43:13.085Z,58.70
2023-01-21T03:46:00.660Z,58.80
2023-01-21T03:48:58.276Z,58.80
2023-01-21T03:51:37.285Z,58.70
2023-01-21T03:54:07.874Z,58.90
2023-01-21T03:56:39.009Z,58.80
2023-01-21T03:59:09.623Z,58.90
2023-01-21T04:01:41.241Z,58.80
2023-01-21T04:04:12.829Z,58.90
2023-01-21T04:06:43.408Z,59.10
2023-01-21T04:09:14.322Z,59.10
2023-01-21T04:11:44.732Z,59.20
2023-01-21T04:14:14.915Z,59.30
2023-01-21T04:16:45.186Z,59.20
2023-01-21T04:19:15.723Z,59.20
2023-01-21T04:21:46.155Z,59.20
2023-01-21T04:24:16.680Z,59.20
2023-01-21T04:26:47.231Z,59.30
2023-01-21T04:29:19.002Z,59.30
2023-01-21T04:31:50.180Z,59.30
2023-01-21T04:34:20.542Z,59.30
2023-01-21T04:36:50.780Z,59.40
2023-01-21T04:39:21.078Z,59.40
2023-01-21T04:41:51.276Z,59.40
2023-01-21T04:44:21.538Z,59.50
2023-01-21T04:46:51.856Z,59.50
2023-01-21T04:49:22.273Z,59.60
2023-01-21T04:51:52.480Z,59.60
2023-01-21T04:54:22.854Z,59.60
2023-01-21T04:56:53.137Z,59.50
2023-01-21T04:59:23.431Z,59.60
2023-01-21T05:01:53.692Z,59.60
2023-01-21T05:04:23.961Z,59.60
2023-01-21T05:06:54.193Z,59.60
2023-01-21T05:09:24.464Z,59.60
2023-01-21T05:11:54.639Z,59.70
2023-01-21T05:14:25.001Z,59.90
2023-01-21T05:16:55.340Z,59.90
2023-01-21T05:19:25.580Z,59.90
2023-01-21T05:21:55.938Z,59.70
2023-01-21T05:24:26.121Z,59.60
2023-01-21T05:26:56.429Z,59.50
2023-01-21T05:29:26.673Z,59.50
2023-01-21T05:31:57.160Z,59.30
2023-01-21T05:34:27.406Z,59.20
2023-01-21T05:36:57.788Z,59.10
2023-01-21T05:39:28.067Z,59.10
2023-01-21T05:41:58.521Z,59.00
2023-01-21T05:44:28.760Z,58.90
2023-01-21T05:47:00.426Z,58.80
2023-01-21T05:49:30.695Z,58.70
2023-01-21T05:52:01.034Z,58.60
2023-01-21T05:54:31.310Z,58.50
2023-01-21T05:57:01.820Z,58.40
2023-01-21T05:59:32.133Z,58.30
2023-01-21T06:02:02.568Z,58.20
2023-01-21T06:04:32.871Z,58.20
2023-01-21T06:07:03.218Z,58.10
2023-01-21T06:09:33.410Z,58.00
2023-01-21T06:12:03.743Z,57.90
2023-01-21T06:14:33.991Z,57.90
2023-01-21T06:17:04.237Z,57.90
2023-01-21T06:19:34.542Z,57.90
2023-01-21T06:22:04.736Z,57.90
2023-01-21T06:24:34.926Z,57.80
2023-01-21T06:27:05.261Z,57.80
2023-01-21T06:29:35.524Z,58.50
2023-01-21T06:32:05.890Z,57.80
2023-01-21T06:34:36.339Z,57.90
2023-01-21T06:37:06.620Z,57.90
2023-01-21T06:39:37.513Z,57.90
2023-01-21T06:42:07.838Z,58.00
2023-01-21T06:44:38.023Z,58.00
2023-01-21T06:47:08.402Z,58.00
2023-01-21T06:49:38.640Z,58.00
2023-01-21T06:52:09.229Z,58.00
2023-01-21T06:54:39.487Z,58.00
2023-01-21T06:57:13.789Z,58.00
2023-01-21T06:59:44.055Z,58.10
2023-01-21T07:02:15.994Z,58.10
2023-01-21T07:04:47.047Z,58.10
2023-01-21T07:07:17.323Z,58.10
2023-01-21T07:09:47.638Z,58.10
2023-01-21T07:12:17.843Z,58.10
2023-01-21T07:14:48.093Z,58.20
2023-01-21T07:17:18.432Z,58.20
2023-01-21T07:19:48.817Z,58.20
2023-01-21T07:22:19.080Z,58.20
2023-01-21T07:24:49.429Z,58.30
2023-01-21T07:27:19.780Z,58.40
2023-01-21T07:29:50.039Z,58.40
2023-01-21T07:32:20.218Z,58.30
2023-01-21T07:34:50.480Z,58.30
2023-01-21T07:37:20.662Z,58.20
2023-01-21T07:39:51.867Z,58.30
2023-01-21T07:42:23.320Z,58.30
2023-01-21T07:44:53.603Z,58.20
2023-01-21T07:47:23.794Z,58.30
2023-01-21T07:49:54.086Z,58.30
2023-01-21T07:52:24.505Z,58.30
2023-01-21T07:54:54.784Z,58.30
2023-01-21T07:57:25.050Z,58.30
2023-01-21T07:59:55.263Z,58.30
2023-01-21T08:02:25.828Z,58.30
2023-01-21T08:04:56.592Z,58.30
2023-01-21T08:07:27.076Z,58.30
2023-01-21T08:09:57.562Z,58.30
2023-01-21T08:12:28.049Z,58.40
2023-01-21T08:14:58.299Z,58.30
2023-01-21T08:17:29.056Z,58.40
2023-01-21T08:19:59.587Z,58.40
2023-01-21T08:22:30.050Z,58.40
2023-01-21T08:25:00.494Z,58.40
2023-01-21T08:27:30.818Z,58.50
2023-01-21T08:30:01.627Z,58.50
2023-01-21T08:32:34.582Z,58.50
2023-01-21T08:35:04.866Z,58.70
2023-01-21T08:37:35.078Z,58.70
2023-01-21T08:40:05.497Z,58.80
2023-01-21T08:42:35.755Z,58.70
2023-01-21T08:45:06.569Z,58.70
2023-01-21T08:47:36.830Z,58.80
2023-01-21T08:50:09.216Z,58.80
2023-01-21T08:52:39.497Z,58.80
2023-01-21T08:55:10.620Z,58.90
2023-01-21T08:57:40.862Z,58.90
2023-01-21T09:00:11.954Z,59.50
2023-01-21T09:02:42.264Z,58.90
2023-01-21T09:05:12.716Z,58.80
2023-01-21T09:07:42.997Z,58.90
2023-01-21T09:10:13.721Z,58.90
2023-01-21T09:12:44.164Z,59.30
2023-01-21T09:15:14.558Z,59.30
2023-01-21T09:17:44.829Z,59.20
2023-01-21T09:20:15.400Z,59.30
2023-01-21T09:22:45.603Z,59.30
2023-01-21T09:25:16.315Z,59.30
2023-01-21T09:27:46.832Z,59.50
2023-01-21T09:30:17.429Z,59.50
2023-01-21T09:32:47.732Z,59.50
2023-01-21T09:35:18.380Z,59.60
2023-01-21T09:37:49.809Z,59.60
2023-01-21T09:40:20.191Z,59.70
2023-01-21T09:42:50.426Z,59.60
2023-01-21T09:45:22.700Z,59.60
2023-01-21T09:47:53.748Z,59.50
2023-01-21T09:50:26.002Z,59.50
2023-01-21T09:53:02.338Z,59.30
2023-01-21T09:55:44.272Z,59.30
2023-01-21T09:58:36.832Z,59.30
2023-01-21T10:01:26.678Z,59.10
2023-01-21T10:04:25.324Z,59.30
2023-01-21T10:07:20.795Z,59.30
2023-01-21T10:09:58.962Z,59.30
2023-01-21T10:12:38.071Z,59.30
2023-01-21T10:15:31.931Z,59.90
2023-01-21T10:18:04.566Z,59.20
2023-01-21T10:21:23.989Z,59.30
2023-01-21T10:24:03.089Z,59.30
2023-01-21T10:26:37.099Z,59.30
2023-01-21T10:29:08.255Z,59.30
2023-01-21T10:31:44.534Z,59.70
2023-01-21T10:34:20.635Z,59.60
2023-01-21T10:36:59.851Z,59.40
2023-01-21T10:39:48.313Z,59.40
2023-01-21T10:42:46.746Z,59.50
2023-01-21T10:45:33.317Z,59.30
2023-01-21T10:48:13.836Z,59.50
2023-01-21T10:50:52.985Z,59.50
2023-01-21T10:53:38.345Z,59.50
2023-01-21T10:56:28.024Z,59.40
2023-01-21T10:59:11.383Z,59.30
2023-01-21T11:01:47.110Z,59.30
2023-01-21T11:04:23.809Z,59.50
2023-01-21T11:07:08.760Z,59.40
2023-01-21T11:09:47.881Z,59.40
2023-01-21T11:12:25.669Z,59.40
2023-01-21T11:15:10.031Z,59.50
2023-01-21T11:17:43.502Z,59.50
2023-01-21T11:20:21.699Z,59.50
2023-01-21T11:22:53.112Z,59.50
2023-01-21T11:25:44.582Z,59.60
2023-01-21T11:28:29.130Z,59.50
2023-01-21T11:31:11.030Z,59.60
2023-01-21T11:33:42.917Z,59.50
2023-01-21T11:36:24.078Z,59.60
2023-01-21T11:39:06.901Z,59.50
2023-01-21T11:41:37.843Z,59.50
2023-01-21T11:44:20.970Z,59.60
2023-01-21T11:46:52.336Z,59.60
2023-01-21T11:49:34.230Z,59.60
2023-01-21T11:52:18.442Z,59.70
2023-01-21T11:54:49.668Z,59.60
2023-01-21T11:57:34.615Z,59.70
2023-01-21T12:00:24.355Z,59.60
2023-01-21T12:03:00.224Z,59.60
2023-01-21T12:05:43.344Z,59.70
2023-01-21T12:08:33.729Z,59.60
2023-01-21T12:11:07.165Z,59.60
2023-01-21T12:13:48.010Z,59.70
2023-01-21T12:16:27.866Z,59.60
2023-01-21T12:19:28.527Z,59.60
2023-01-21T12:22:39.867Z,59.60
2023-01-21T12:25:22.119Z,59.60
2023-01-21T12:28:28.232Z,59.70
2023-01-21T12:31:28.807Z,59.70
2023-01-21T12:34:08.227Z,59.70
2023-01-21T12:36:43.610Z,59.70
2023-01-21T12:39:43.540Z,59.70
2023-01-21T12:42:33.260Z,59.60
2023-01-21T12:45:30.090Z,59.70
2023-01-21T12:48:01.245Z,59.60
2023-01-21T12:50:43.068Z,59.70
2023-01-21T12:53:13.622Z,59.70
2023-01-21T12:55:59.098Z,59.80
2023-01-21T12:58:34.304Z,59.70
2023-01-21T13:01:10.659Z,59.80
2023-01-21T13:04:08.737Z,59.70
2023-01-21T13:07:12.629Z,59.70
2023-01-21T13:10:16.521Z,59.70
2023-01-21T13:12:52.638Z,59.80
2023-01-21T13:15:34.236Z,59.80
2023-01-21T13:18:13.439Z,59.80
2023-01-21T13:20:52.629Z,59.70
2023-01-21T13:23:28.651Z,59.80
2023-01-21T13:26:07.722Z,59.80
2023-01-21T13:28:50.853Z,59.80
2023-01-21T13:31:33.384Z,59.80
2023-01-21T13:34:38.536Z,59.80
2023-01-21T13:37:34.700Z,59.70
2023-01-21T13:40:35.086Z,59.80
2023-01-21T13:43:13.918Z,59.80
2023-01-21T13:46:13.552Z,59.80
2023-01-21T13:48:58.544Z,59.80
2023-01-21T13:51:57.069Z,59.90
2023-01-21T13:54:58.955Z,59.80
2023-01-21T13:57:40.867Z,59.90
2023-01-21T14:00:40.374Z,60.00
2023-01-21T14:03:30.183Z,60.00
2023-01-21T14:06:04.893Z,60.10
2023-01-21T14:08:43.463Z,60.10
2023-01-21T14:11:50.469Z,60.00
2023-01-21T14:15:21.173Z,60.00
2023-01-21T14:18:33.331Z,60.10
2023-01-21T14:21:17.091Z,60.10
2023-01-21T14:23:47.523Z,60.10
2023-01-21T14:26:26.685Z,60.20
2023-01-21T14:29:25.284Z,60.20
2023-01-21T14:32:13.783Z,60.10
2023-01-21T14:35:09.863Z,60.90
2023-01-21T14:38:28.613Z,60.10
2023-01-21T14:41:13.156Z,60.10
2023-01-21T14:43:48.114Z,60.10
2023-01-21T14:46:38.394Z,60.90
2023-01-21T14:49:12.128Z,60.10
2023-01-21T14:51:51.510Z,60.10
2023-01-21T14:54:28.020Z,60.10
2023-01-21T14:57:18.525Z,60.10
2023-01-21T14:59:49.820Z,60.10
2023-01-21T15:02:44.805Z,60.10
2023-01-21T15:05:18.007Z,60.00
2023-01-21T15:07:51.191Z,60.10
2023-01-21T15:10:28.116Z,60.10
2023-01-21T15:13:04.945Z,60.10
2023-01-21T15:15:38.759Z,60.00
2023-01-21T15:18:37.361Z,60.10
2023-01-21T15:21:46.669Z,60.00
2023-01-21T15:24:47.245Z,60.00
2023-01-21T15:27:25.688Z,60.10
2023-01-21T15:30:00.156Z,60.10
2023-01-21T15:32:35.490Z,60.10
2023-01-21T15:35:40.880Z,60.10
2023-01-21T15:38:19.194Z,60.10
2023-01-21T15:40:57.519Z,60.10
2023-01-21T15:43:56.578Z,60.10
2023-01-21T15:46:58.581Z,60.00
2023-01-21T15:50:30.058Z,60.50
2023-01-21T15:53:24.707Z,60.10
2023-01-21T15:56:25.035Z,60.20
2023-01-21T15:59:13.284Z,60.20
2023-01-21T16:01:44.559Z,60.30
2023-01-21T16:04:41.349Z,60.40
2023-01-21T16:07:26.921Z,60.20
2023-01-21T16:10:28.482Z,60.30
2023-01-21T16:13:16.747Z,60.30
2023-01-21T16:16:07.010Z,60.30
2023-01-21T16:19:02.876Z,60.30
2023-01-21T16:21:37.858Z,60.30
2023-01-21T16:24:13.529Z,60.50
2023-01-21T16:26:43.817Z,60.50
2023-01-21T16:29:15.948Z,60.50
2023-01-21T16:32:03.539Z,60.50
2023-01-21T16:34:33.883Z,60.40
2023-01-21T16:37:08.742Z,60.50
2023-01-21T16:39:39.149Z,60.50
2023-01-21T16:42:22.436Z,60.50
2023-01-21T16:44:53.328Z,60.50
2023-01-21T16:47:29.352Z,60.60
2023-01-21T16:50:00.877Z,60.50
2023-01-21T16:52:32.311Z,60.60
2023-01-21T16:55:02.788Z,60.60
2023-01-21T16:57:33.892Z,60.70
2023-01-21T17:00:04.287Z,60.70
2023-01-21T17:02:36.133Z,60.70
2023-01-21T17:05:07.631Z,60.70
2023-01-21T17:07:59.611Z,60.70
2023-01-21T17:11:11.711Z,60.60
2023-01-21T17:13:44.957Z,60.50
2023-01-21T17:16:31.097Z,60.80
2023-01-21T17:19:08.228Z,60.70
2023-01-21T17:21:57.048Z,60.80
2023-01-21T17:24:45.621Z,60.70
2023-01-21T17:27:22.146Z,60.70
2023-01-21T17:29:53.034Z,60.70
2023-01-21T17:32:36.158Z,60.80
2023-01-21T17:35:14.879Z,60.60
2023-01-21T17:37:56.574Z,60.70
2023-01-21T17:40:30.902Z,60.70
2023-01-21T17:43:03.589Z,60.80
2023-01-21T17:45:46.354Z,60.80
2023-01-21T17:48:31.827Z,60.80
2023-01-21T17:51:15.165Z,60.70
2023-01-21T17:53:54.855Z,60.60
2023-01-21T17:56:50.791Z,60.70
2023-01-21T17:59:40.400Z,60.60
2023-01-21T18:02:16.625Z,60.70
2023-01-21T18:04:47.581Z,60.80
2023-01-21T18:07:28.744Z,60.70
2023-01-21T18:10:04.624Z,60.60
2023-01-21T18:12:35.096Z,60.70
2023-01-21T18:15:05.789Z,60.80
2023-01-21T18:17:39.233Z,60.70
2023-01-21T18:20:28.378Z,60.80
2023-01-21T18:23:00.334Z,60.80
2023-01-21T18:25:30.927Z,60.80
2023-01-21T18:28:01.153Z,60.80
2023-01-21T18:30:32.341Z,60.80
2023-01-21T18:33:02.537Z,60.80
2023-01-21T18:35:33.501Z,60.80
2023-01-21T18:38:04.078Z,60.80
2023-01-21T18:40:34.583Z,60.80
2023-01-21T18:43:05.014Z,60.80
2023-01-21T18:45:35.686Z,60.80
2023-01-21T18:48:06.125Z,60.80
2023-01-21T18:50:36.710Z,60.80
2023-01-21T18:53:07.771Z,60.80
2023-01-21T18:55:38.380Z,60.90
2023-01-21T18:58:18.544Z,60.80
2023-01-21T19:00:48.891Z,60.80
2023-01-21T19:03:20.010Z,60.90
2023-01-21T19:05:51.081Z,60.80
2023-01-21T19:08:30.071Z,60.90
2023-01-21T19:11:00.484Z,61.00
2023-01-21T19:13:30.736Z,61.00
2023-01-21T19:16:02.556Z,60.90
2023-01-21T19:18:32.912Z,61.00
2023-01-21T19:21:03.169Z,60.90
2023-01-21T19:23:33.374Z,60.90
2023-01-21T19:26:04.216Z,60.90
2023-01-21T19:28:35.709Z,60.90
2023-01-21T19:31:06.252Z,60.90
2023-01-21T19:33:36.647Z,60.90
2023-01-21T19:36:18.388Z,60.80
2023-01-21T19:38:59.225Z,60.80
2023-01-21T19:41:29.898Z,60.90
2023-01-21T19:44:00.184Z,60.90
2023-01-21T19:46:30.877Z,60.90
2023-01-21T19:49:01.825Z,60.90
2023-01-21T19:51:32.270Z,60.90
2023-01-21T19:54:02.644Z,60.90
2023-01-21T19:56:33.071Z,61.00
2023-01-21T19:59:07.183Z,61.00
2023-01-21T20:01:37.564Z,61.00
2023-01-21T20:04:07.820Z,61.00
2023-01-21T20:06:42.501Z,61.00
2023-01-21T20:09:19.427Z,60.90
2023-01-21T20:11:49.904Z,60.90
2023-01-21T20:14:20.984Z,61.00
2023-01-21T20:16:54.525Z,61.00
2023-01-21T20:19:25.173Z,61.00
2023-01-21T20:22:02.044Z,61.00
2023-01-21T20:24:35.479Z,61.00
2023-01-21T20:27:09.360Z,61.00
2023-01-21T20:29:49.525Z,61.00
2023-01-21T20:32:25.736Z,61.00
2023-01-21T20:34:56.062Z,61.00
2023-01-21T20:37:26.898Z,61.00
2023-01-21T20:39:57.069Z,61.00
2023-01-21T20:42:28.082Z,61.00
2023-01-21T20:44:58.414Z,61.10
2023-01-21T20:47:38.593Z,61.20
2023-01-21T20:50:23.847Z,61.30
2023-01-21T20:52:55.200Z,61.30
2023-01-21T20:55:27.256Z,61.50
2023-01-21T20:57:58.220Z,61.60
2023-01-21T21:00:32.761Z,61.70
2023-01-21T21:03:03.363Z,61.70
2023-01-21T21:05:34.296Z,61.70
2023-01-21T21:08:04.934Z,61.80
2023-01-21T21:10:40.471Z,61.80
2023-01-21T21:13:11.009Z,61.80
2023-01-21T21:15:42.013Z,61.90
2023-01-21T21:18:21.328Z,61.90
2023-01-21T21:20:51.611Z,61.80
2023-01-21T21:23:21.909Z,61.80
2023-01-21T21:25:52.747Z,61.80
2023-01-21T21:28:23.194Z,61.90
2023-01-21T21:30:53.432Z,61.80
2023-01-21T21:33:25.064Z,61.70
2023-01-21T21:35:55.338Z,61.80
2023-01-21T21:38:31.577Z,61.80
2023-01-21T21:41:21.434Z,61.70
2023-01-21T21:43:52.604Z,61.70
2023-01-21T21:46:40.857Z,61.80
2023-01-21T21:49:11.265Z,61.70
2023-01-21T21:51:42.653Z,61.80
2023-01-21T21:54:16.082Z,61.80
2023-01-21T21:56:46.545Z,61.70
2023-01-21T21:59:17.512Z,61.80
2023-01-21T22:01:48.374Z,61.80
2023-01-21T22:04:19.305Z,61.80
2023-01-21T22:06:49.765Z,61.80
2023-01-21T22:09:20.011Z,61.70
2023-01-21T22:11:50.408Z,61.60
2023-01-21T22:14:20.963Z,61.70
2023-01-21T22:16:53.090Z,61.60
2023-01-21T22:19:23.640Z,61.60
2023-01-21T22:21:53.920Z,61.70
2023-01-21T22:24:24.258Z,61.70
2023-01-21T22:26:54.541Z,61.70
2023-01-21T22:29:24.892Z,61.70
2023-01-21T22:31:55.152Z,61.70
2023-01-21T22:34:25.623Z,61.60
2023-01-21T22:36:55.846Z,61.70
2023-01-21T22:39:26.208Z,61.70
2023-01-21T22:42:01.853Z,61.80
2023-01-21T22:44:32.377Z,61.80
2023-01-21T22:47:02.598Z,61.80
2023-01-21T22:49:33.023Z,61.80
2023-01-21T22:52:03.274Z,61.80
2023-01-21T22:54:33.577Z,61.80
2023-01-21T22:57:03.794Z,62.00
2023-01-21T22:59:35.349Z,62.00
2023-01-21T23:02:05.560Z,62.20
2023-01-21T23:04:42.443Z,62.60
2023-01-21T23:07:12.664Z,62.90
2023-01-21T23:09:43.137Z,63.10
2023-01-21T23:12:20.664Z,63.20
2023-01-21T23:14:51.078Z,63.20
2023-01-21T23:17:21.310Z,63.20
2023-01-21T23:19:51.712Z,63.40
2023-01-21T23:22:21.877Z,63.30
2023-01-21T23:24:52.137Z,63.30
2023-01-21T23:27:22.537Z,63.40
2023-01-21T23:29:53.059Z,63.30
2023-01-21T23:32:23.422Z,63.30
2023-01-21T23:34:53.776Z,63.30
2023-01-21T23:37:24.284Z,63.30
2023-01-21T23:39:54.974Z,63.40
2023-01-21T23:42:25.599Z,63.40
2023-01-21T23:44:55.993Z,63.40
2023-01-21T23:47:26.465Z,63.30
2023-01-21T23:49:56.863Z,63.80
2023-01-21T23:52:27.199Z,64.00
2023-01-21T23:54:57.372Z,64.00
2023-01-21T23:57:27.896Z,63.90
2023-01-21T23:59:59.058Z,64.00
